createdAt,value
2019-05-23T00:01:15.896Z,89.70
2019-05-23T00:03:49.052Z,89.70
2019-05-23T00:06:17.921Z,89.50
2019-05-23T00:08:46.801Z,89.50
2019-05-23T00:11:32.239Z,89.50
2019-05-23T00:14:04.689Z,89.60
2019-05-23T00:16:33.047Z,89.60
2019-05-23T00:19:01.103Z,89.50
2019-05-23T00:21:30.123Z,89.50
2019-05-23T00:23:57.954Z,89.40
2019-05-23T00:26:26.071Z,89.60
2019-05-23T00:29:09.022Z,89.70
2019-05-23T00:34:18.128Z,89.40
2019-05-23T00:36:46.242Z,89.30
2019-05-23T00:39:34.364Z,89.20
2019-05-23T00:42:01.524Z,89.40
2019-05-23T00:44:48.377Z,89.40
2019-05-23T00:47:18.352Z,89.10
2019-05-23T00:50:06.476Z,89.30
2019-05-23T00:52:33.651Z,89.10
2019-05-23T00:55:01.541Z,89.20
2019-05-23T00:57:28.583Z,89.30
2019-05-23T00:59:57.193Z,89.10
2019-05-23T01:02:25.303Z,88.50
2019-05-23T01:05:12.535Z,88.90
2019-05-23T01:07:40.490Z,88.80
2019-05-23T01:10:09.263Z,88.90
2019-05-23T01:12:36.853Z,89.10
2019-05-23T01:15:25.622Z,88.70
2019-05-23T01:18:12.669Z,88.70
2019-05-23T01:20:59.427Z,88.90
2019-05-23T01:23:52.843Z,88.80
2019-05-23T01:26:20.795Z,88.70
2019-05-23T01:28:48.626Z,89.00
2019-05-23T01:31:19.657Z,89.00
2019-05-23T01:33:48.134Z,88.90
2019-05-23T01:36:15.848Z,88.60
2019-05-23T01:38:43.352Z,88.70
2019-05-23T01:41:12.191Z,88.80
2019-05-23T01:43:39.192Z,88.90
2019-05-23T01:46:06.648Z,88.80
2019-05-23T01:48:34.185Z,88.80
2019-05-23T01:51:01.693Z,88.90
2019-05-23T01:53:48.749Z,88.90
2019-05-23T01:56:16.158Z,88.50
2019-05-23T01:58:43.666Z,88.70
2019-05-23T02:01:12.131Z,88.90
2019-05-23T02:03:40.644Z,88.70
2019-05-23T02:06:08.129Z,89.00
2019-05-23T02:08:36.004Z,88.70
2019-05-23T02:11:03.597Z,88.90
2019-05-23T02:13:30.980Z,88.70
2019-05-23T02:15:58.554Z,88.70
2019-05-23T02:18:25.554Z,88.70
2019-05-23T02:20:53.248Z,88.70
2019-05-23T02:23:20.902Z,88.90
2019-05-23T02:25:48.811Z,88.80
2019-05-23T02:28:17.294Z,88.90
2019-05-23T02:30:44.345Z,88.90
2019-05-23T02:33:11.756Z,88.90
2019-05-23T02:35:39.862Z,88.90
2019-05-23T02:38:18.184Z,89.10
2019-05-23T02:41:08.269Z,89.20
2019-05-23T02:43:35.958Z,89.10
2019-05-23T02:46:06.752Z,89.30
2019-05-23T02:48:37.821Z,89.30
2019-05-23T02:51:08.142Z,89.30
2019-05-23T02:53:36.643Z,89.80
2019-05-23T02:56:07.412Z,89.60
2019-05-23T02:58:39.969Z,89.50
2019-05-23T03:01:41.628Z,89.40
2019-05-23T03:04:10.307Z,89.30
2019-05-23T03:06:38.945Z,89.50
2019-05-23T03:09:07.178Z,89.70
2019-05-23T03:11:56.413Z,89.70
2019-05-23T03:14:25.506Z,89.70
2019-05-23T03:16:53.634Z,90.00
2019-05-23T03:19:36.391Z,90.00
2019-05-23T03:22:30.237Z,90.00
2019-05-23T03:25:00.201Z,90.00
2019-05-23T03:27:29.021Z,90.00
2019-05-23T03:29:56.896Z,90.00
2019-05-23T03:32:49.391Z,90.10
2019-05-23T03:35:22.682Z,90.10
2019-05-23T03:37:51.166Z,90.00
2019-05-23T03:40:18.181Z,90.00
2019-05-23T03:42:45.598Z,90.00
2019-05-23T03:45:39.563Z,90.20
2019-05-23T03:48:05.305Z,89.80
2019-05-23T03:50:33.562Z,90.10
2019-05-23T03:53:21.089Z,90.00
2019-05-23T03:55:51.995Z,90.00
2019-05-23T03:58:20.816Z,90.00
2019-05-23T04:01:09.724Z,90.40
2019-05-23T04:03:39.874Z,89.90
2019-05-23T04:06:26.481Z,90.30
2019-05-23T04:08:53.601Z,90.00
2019-05-23T04:11:20.899Z,90.00
2019-05-23T04:13:47.925Z,90.00
2019-05-23T04:16:15.453Z,90.00
2019-05-23T04:18:42.600Z,90.10
2019-05-23T04:21:09.815Z,90.00
2019-05-23T04:23:56.878Z,89.90
2019-05-23T04:27:00.115Z,89.80
2019-05-23T04:29:52.779Z,90.10
2019-05-23T04:32:21.021Z,89.90
2019-05-23T04:35:08.740Z,89.90
2019-05-23T04:37:49.220Z,90.10
2019-05-23T04:40:17.918Z,89.80
2019-05-23T04:42:45.610Z,90.30
2019-05-23T04:45:12.649Z,89.70
2019-05-23T04:47:40.001Z,90.10
2019-05-23T04:50:28.108Z,90.10
2019-05-23T04:53:15.476Z,90.00
2019-05-23T04:55:43.077Z,90.00
2019-05-23T04:58:11.646Z,90.10
2019-05-23T05:00:39.688Z,90.20
2019-05-23T05:03:06.740Z,90.10
2019-05-23T05:05:34.379Z,90.10
2019-05-23T05:08:02.091Z,90.20
2019-05-23T05:10:30.208Z,90.30
2019-05-23T05:12:59.407Z,90.20
2019-05-23T05:15:26.970Z,90.30
2019-05-23T05:17:54.098Z,90.20
2019-05-23T05:20:23.957Z,90.30
2019-05-23T05:22:52.262Z,90.30
2019-05-23T05:25:20.109Z,90.30
2019-05-23T05:27:47.446Z,90.30
2019-05-23T05:30:15.324Z,90.30
2019-05-23T05:32:45.237Z,90.40
2019-05-23T05:35:13.168Z,90.40
2019-05-23T05:37:40.973Z,90.30
2019-05-23T05:40:09.075Z,90.30
2019-05-23T05:42:37.704Z,90.00
2019-05-23T05:45:24.914Z,90.30
2019-05-23T05:47:52.864Z,90.40
2019-05-23T05:50:20.280Z,90.30
2019-05-23T05:52:50.052Z,90.30
2019-05-23T05:55:17.579Z,90.40
2019-05-23T05:57:45.043Z,90.40
2019-05-23T06:00:32.432Z,90.40
2019-05-23T06:03:05.080Z,90.30
2019-05-23T06:05:43.869Z,90.40
2019-05-23T06:08:12.099Z,90.90
2019-05-23T06:10:59.466Z,90.40
2019-05-23T06:13:27.256Z,90.40
2019-05-23T06:16:14.213Z,90.40
2019-05-23T06:18:42.514Z,90.20
2019-05-23T06:21:30.034Z,90.30
2019-05-23T06:23:57.628Z,90.90
2019-05-23T06:26:25.007Z,90.30
2019-05-23T06:28:53.018Z,90.20
2019-05-23T06:31:24.063Z,90.40
2019-05-23T06:33:52.127Z,90.40
2019-05-23T06:36:19.068Z,90.30
2019-05-23T06:39:08.739Z,90.20
2019-05-23T06:41:36.067Z,90.10
2019-05-23T06:44:03.569Z,90.00
2019-05-23T06:46:31.456Z,90.30
2019-05-23T06:48:58.388Z,90.10
2019-05-23T06:51:25.889Z,89.10
2019-05-23T06:53:53.574Z,89.90
2019-05-23T06:56:20.723Z,89.70
2019-05-23T06:58:47.609Z,90.00
2019-05-23T07:01:15.024Z,90.10
2019-05-23T07:04:02.262Z,90.20
2019-05-23T07:06:29.701Z,89.90
2019-05-23T07:08:57.090Z,89.50
2019-05-23T07:11:43.972Z,90.00
2019-05-23T07:14:11.725Z,89.90
2019-05-23T07:16:39.173Z,90.00
2019-05-23T07:19:06.408Z,88.30
2019-05-23T07:21:34.381Z,89.10
2019-05-23T07:24:01.268Z,89.20
2019-05-23T07:26:29.007Z,88.80
2019-05-23T07:28:56.620Z,89.30
2019-05-23T07:31:23.632Z,89.60
2019-05-23T07:34:01.102Z,89.20
2019-05-23T07:36:19.937Z,88.20
2019-05-23T07:38:46.856Z,89.20
2019-05-23T07:41:14.227Z,88.20
2019-05-23T07:43:42.215Z,89.10
2019-05-23T07:46:09.554Z,89.10
2019-05-23T07:48:36.861Z,88.50
2019-05-23T07:51:04.557Z,89.30
2019-05-23T07:53:51.237Z,89.20
2019-05-23T07:56:20.395Z,89.50
2019-05-23T07:58:47.986Z,87.70
2019-05-23T08:01:18.749Z,88.00
2019-05-23T08:03:45.790Z,88.80
2019-05-23T08:06:13.100Z,88.40
2019-05-23T08:08:40.862Z,89.00
2019-05-23T08:13:54.330Z,88.70
2019-05-23T08:16:21.754Z,88.50
2019-05-23T08:19:08.699Z,87.90
2019-05-23T08:21:42.670Z,88.30
2019-05-23T08:24:11.898Z,86.70
2019-05-23T08:26:40.666Z,88.70
2019-05-23T08:29:26.391Z,87.20
2019-05-23T08:31:37.342Z,88.10
2019-05-23T08:34:05.615Z,88.50
2019-05-23T08:36:52.698Z,88.30
2019-05-23T08:39:21.685Z,88.10
2019-05-23T08:41:49.522Z,87.40
2019-05-23T08:44:17.343Z,87.50
2019-05-23T08:46:45.700Z,87.20
2019-05-23T08:49:32.603Z,87.40
2019-05-23T08:52:19.390Z,88.50
2019-05-23T08:54:47.066Z,87.90
2019-05-23T08:57:14.508Z,87.40
2019-05-23T08:59:41.829Z,86.90
2019-05-23T09:02:11.271Z,83.20
2019-05-23T09:04:38.172Z,85.30
2019-05-23T09:07:06.698Z,84.80
2019-05-23T09:09:34.824Z,85.50
2019-05-23T09:12:02.954Z,83.70
2019-05-23T09:14:30.989Z,84.60
2019-05-23T09:17:18.526Z,83.90
2019-05-23T09:19:46.022Z,85.20
2019-05-23T09:22:18.064Z,82.90
2019-05-23T09:24:45.820Z,81.70
2019-05-23T09:27:13.246Z,83.40
2019-05-23T09:29:41.454Z,85.20
2019-05-23T09:32:09.361Z,82.70
2019-05-23T09:34:36.382Z,81.70
2019-05-23T09:37:04.453Z,83.80
2019-05-23T09:39:31.838Z,84.20
2019-05-23T09:41:58.886Z,83.30
2019-05-23T09:44:26.390Z,81.20
2019-05-23T09:46:53.420Z,82.20
2019-05-23T09:49:20.634Z,82.40
2019-05-23T09:54:35.298Z,78.60
2019-05-23T09:57:02.801Z,81.60
2019-05-23T09:59:30.026Z,80.50
2019-05-23T10:01:59.459Z,77.90
2019-05-23T10:04:26.441Z,80.50
2019-05-23T10:06:54.354Z,80.90
2019-05-23T10:09:21.328Z,79.40
2019-05-23T10:11:48.521Z,79.50
2019-05-23T10:14:20.448Z,79.50
2019-05-23T10:16:47.925Z,80.20
2019-05-23T10:19:15.036Z,77.10
2019-05-23T10:21:42.106Z,79.80
2019-05-23T10:24:09.654Z,75.30
2019-05-23T10:26:36.852Z,73.60
2019-05-23T10:29:03.865Z,77.60
2019-05-23T10:31:30.984Z,77.60
2019-05-23T10:33:58.424Z,78.40
2019-05-23T10:36:45.511Z,79.20
2019-05-23T10:39:12.830Z,73.50
2019-05-23T10:41:39.979Z,78.20
2019-05-23T10:44:07.429Z,77.50
2019-05-23T10:46:54.754Z,75.80
2019-05-23T10:49:22.182Z,73.50
2019-05-23T10:52:10.527Z,74.00
2019-05-23T10:54:38.402Z,74.60
2019-05-23T10:57:05.563Z,73.30
2019-05-23T10:59:32.578Z,73.20
2019-05-23T11:02:19.833Z,73.10
2019-05-23T11:04:47.462Z,74.60
2019-05-23T11:07:16.357Z,75.00
2019-05-23T11:09:43.738Z,74.30
2019-05-23T11:12:11.712Z,72.70
2019-05-23T11:14:58.899Z,71.50
2019-05-23T11:17:47.722Z,72.20
2019-05-23T11:20:17.449Z,71.30
2019-05-23T11:22:45.052Z,74.30
2019-05-23T11:25:12.740Z,69.10
2019-05-23T11:27:40.505Z,74.40
2019-05-23T11:30:07.613Z,71.40
2019-05-23T11:32:54.447Z,72.10
2019-05-23T11:38:08.838Z,68.40
2019-05-23T11:40:55.606Z,72.00
2019-05-23T11:43:23.183Z,71.70
2019-05-23T11:46:21.089Z,71.00
2019-05-23T11:48:48.738Z,69.20
2019-05-23T11:51:16.474Z,71.70
2019-05-23T11:54:08.445Z,71.20
2019-05-23T11:59:21.435Z,70.80
2019-05-23T12:02:08.437Z,71.90
2019-05-23T12:04:40.979Z,65.60
2019-05-23T12:07:16.374Z,69.30
2019-05-23T12:10:03.271Z,71.10
2019-05-23T12:12:30.743Z,66.80
2019-05-23T12:14:58.662Z,71.70
2019-05-23T12:17:31.145Z,69.10
2019-05-23T12:19:58.572Z,68.60
2019-05-23T12:22:29.725Z,70.00
2019-05-23T12:24:57.694Z,71.10
2019-05-23T12:27:25.247Z,68.20
2019-05-23T12:29:52.363Z,71.20
2019-05-23T12:32:39.184Z,70.80
2019-05-23T12:35:11.166Z,70.20
2019-05-23T12:37:35.571Z,69.90
2019-05-23T12:40:04.001Z,68.60
2019-05-23T12:42:31.016Z,70.60
2019-05-23T12:44:58.006Z,69.20
2019-05-23T12:47:56.659Z,69.50
2019-05-23T12:50:45.548Z,72.00
2019-05-23T12:53:16.001Z,71.40
2019-05-23T12:55:43.384Z,68.30
2019-05-23T12:58:10.724Z,68.60
2019-05-23T13:00:51.868Z,70.50
2019-05-23T13:03:38.897Z,71.80
2019-05-23T13:06:07.057Z,70.10
2019-05-23T13:08:34.410Z,71.60
2019-05-23T13:11:01.549Z,72.60
2019-05-23T13:13:29.217Z,69.80
2019-05-23T13:15:56.391Z,71.20
2019-05-23T13:18:43.800Z,70.40
2019-05-23T13:21:11.480Z,72.00
2019-05-23T13:23:38.527Z,68.90
2019-05-23T13:26:31.875Z,71.80
2019-05-23T13:28:59.256Z,70.50
2019-05-23T13:31:46.338Z,72.20
2019-05-23T13:34:13.693Z,68.20
2019-05-23T13:37:01.008Z,72.30
2019-05-23T13:39:29.316Z,72.70
2019-05-23T13:41:56.907Z,70.40
2019-05-23T13:44:34.278Z,71.60
2019-05-23T13:46:53.490Z,71.10
2019-05-23T13:49:40.475Z,72.40
2019-05-23T13:52:07.639Z,70.30
2019-05-23T13:54:54.262Z,70.40
2019-05-23T13:57:21.500Z,70.70
2019-05-23T13:59:48.937Z,71.30
2019-05-23T14:02:15.971Z,69.70
2019-05-23T14:04:45.175Z,69.60
2019-05-23T14:07:14.267Z,70.80
2019-05-23T14:09:41.703Z,69.90
2019-05-23T14:12:28.781Z,71.50
2019-05-23T14:14:56.652Z,68.80
2019-05-23T14:17:32.824Z,69.90
2019-05-23T14:20:00.236Z,70.90
2019-05-23T14:22:52.756Z,68.80
2019-05-23T14:25:20.118Z,70.00
2019-05-23T14:28:08.510Z,70.80
2019-05-23T14:30:55.124Z,70.50
2019-05-23T14:33:43.405Z,70.50
2019-05-23T14:36:23.508Z,70.60
2019-05-23T14:38:51.459Z,68.50
2019-05-23T14:41:18.459Z,70.70
2019-05-23T14:44:05.240Z,70.20
2019-05-23T14:46:38.184Z,69.90
2019-05-23T14:49:21.691Z,69.40
2019-05-23T14:52:01.631Z,70.40
2019-05-23T14:54:36.825Z,69.00
2019-05-23T14:57:05.912Z,68.70
2019-05-23T14:59:33.261Z,70.20
2019-05-23T15:02:00.384Z,70.90
2019-05-23T15:04:27.887Z,70.80
2019-05-23T15:06:54.961Z,68.90
2019-05-23T15:09:22.886Z,69.20
2019-05-23T15:11:50.561Z,69.50
2019-05-23T15:14:17.597Z,69.50
2019-05-23T15:16:44.577Z,70.80
2019-05-23T15:19:13.108Z,67.40
2019-05-23T15:21:40.176Z,70.10
2019-05-23T15:24:07.167Z,67.90
2019-05-23T15:26:54.435Z,68.70
2019-05-23T15:29:22.291Z,70.40
2019-05-23T15:32:02.306Z,70.50
2019-05-23T15:34:26.219Z,68.10
2019-05-23T15:36:53.762Z,67.10
2019-05-23T15:39:21.488Z,68.30
2019-05-23T15:41:48.652Z,68.70
2019-05-23T15:44:25.801Z,68.90
2019-05-23T15:46:44.872Z,66.20
2019-05-23T15:49:14.070Z,68.60
2019-05-23T15:51:52.433Z,67.10
2019-05-23T15:57:15.753Z,66.80
2019-05-23T15:59:55.168Z,68.10
2019-05-23T16:02:25.494Z,67.40
2019-05-23T16:04:54.630Z,68.20
2019-05-23T16:07:23.102Z,69.70
2019-05-23T16:09:50.340Z,66.90
2019-05-23T16:12:17.570Z,69.10
2019-05-23T16:14:45.102Z,68.90
2019-05-23T16:17:32.410Z,66.00
2019-05-23T16:19:59.359Z,67.00
2019-05-23T16:22:46.019Z,67.60
2019-05-23T16:25:13.535Z,68.50
2019-05-23T16:27:40.896Z,68.60
2019-05-23T16:30:08.394Z,64.80
2019-05-23T16:32:35.508Z,68.70
2019-05-23T16:35:22.388Z,68.30
2019-05-23T16:37:49.781Z,70.90
2019-05-23T16:40:17.381Z,69.70
2019-05-23T16:43:04.740Z,69.00
2019-05-23T16:45:32.018Z,69.40
2019-05-23T16:48:18.967Z,70.90
2019-05-23T16:51:06.332Z,68.70
2019-05-23T16:53:35.949Z,70.00
2019-05-23T16:56:08.806Z,68.20
2019-05-23T16:58:48.859Z,70.40
2019-05-23T17:01:26.134Z,68.80
2019-05-23T17:04:12.693Z,69.50
2019-05-23T17:06:55.061Z,68.40
2019-05-23T17:09:40.040Z,68.20
2019-05-23T17:12:20.575Z,70.20
2019-05-23T17:14:58.433Z,69.20
2019-05-23T17:18:00.615Z,69.00
2019-05-23T17:20:23.429Z,70.40
2019-05-23T17:23:03.274Z,69.50
2019-05-23T17:25:43.353Z,69.50
2019-05-23T17:28:14.982Z,69.40
2019-05-23T17:30:50.564Z,68.60
2019-05-23T17:33:18.200Z,67.20
2019-05-23T17:35:45.134Z,65.20
2019-05-23T17:38:12.662Z,69.20
2019-05-23T17:40:40.480Z,70.10
2019-05-23T17:43:27.229Z,69.50
2019-05-23T17:45:55.112Z,69.80
2019-05-23T17:48:22.014Z,69.30
2019-05-23T17:50:59.087Z,69.70
2019-05-23T17:53:26.551Z,69.90
2019-05-23T17:55:56.207Z,69.20
2019-05-23T17:58:25.267Z,69.30
2019-05-23T18:00:54.989Z,70.00
2019-05-23T18:03:22.604Z,70.00
2019-05-23T18:05:49.900Z,68.90
2019-05-23T18:08:18.374Z,69.50
2019-05-23T18:10:46.221Z,70.60
2019-05-23T18:13:15.054Z,69.90
2019-05-23T18:15:42.579Z,69.10
2019-05-23T18:18:09.676Z,68.50
2019-05-23T18:20:37.230Z,69.80
2019-05-23T18:23:05.280Z,69.70
2019-05-23T18:25:32.468Z,70.50
2019-05-23T18:27:59.455Z,70.60
2019-05-23T18:30:32.433Z,71.30
2019-05-23T18:33:00.151Z,70.40
2019-05-23T18:35:27.472Z,70.30
2019-05-23T18:37:54.751Z,70.50
2019-05-23T18:40:22.608Z,70.80
2019-05-23T18:42:49.833Z,70.80
2019-05-23T18:45:18.372Z,69.70
2019-05-23T18:47:45.615Z,70.40
2019-05-23T18:50:15.006Z,70.00
2019-05-23T18:52:43.655Z,70.80
2019-05-23T18:55:30.633Z,70.60
2019-05-23T18:57:58.975Z,69.60
2019-05-23T19:01:24.099Z,71.40
2019-05-23T19:03:55.344Z,70.60
2019-05-23T19:06:23.024Z,71.20
2019-05-23T19:08:51.230Z,71.30
2019-05-23T19:11:59.313Z,71.30
2019-05-23T19:14:26.822Z,71.50
2019-05-23T19:16:54.591Z,71.20
2019-05-23T19:19:22.029Z,70.20
2019-05-23T19:21:52.122Z,71.60
2019-05-23T19:24:20.257Z,71.60
2019-05-23T19:26:47.874Z,71.60
2019-05-23T19:29:16.955Z,72.50
2019-05-23T19:31:44.014Z,71.90
2019-05-23T19:34:11.124Z,71.60
2019-05-23T19:36:38.623Z,72.10
2019-05-23T19:39:49.926Z,71.50
2019-05-23T19:42:17.938Z,72.00
2019-05-23T19:44:44.939Z,71.80
2019-05-23T19:47:12.343Z,72.10
2019-05-23T19:49:39.820Z,72.30
2019-05-23T19:52:07.024Z,72.40
2019-05-23T19:54:34.079Z,72.00
2019-05-23T19:57:01.044Z,72.30
2019-05-23T19:59:28.439Z,72.70
2019-05-23T20:02:13.764Z,72.70
2019-05-23T20:04:44.436Z,73.10
2019-05-23T20:07:15.310Z,73.10
2019-05-23T20:09:41.471Z,72.40
2019-05-23T20:12:28.272Z,71.90
2019-05-23T20:14:55.176Z,73.10
2019-05-23T20:17:22.132Z,72.90
2019-05-23T20:19:50.578Z,73.40
2019-05-23T20:22:18.217Z,73.20
2019-05-23T20:24:45.104Z,73.50
2019-05-23T20:27:12.239Z,73.80
2019-05-23T20:29:39.134Z,74.10
2019-05-23T20:32:07.416Z,72.90
2019-05-23T20:34:35.410Z,74.50
2019-05-23T20:37:02.330Z,73.60
2019-05-23T20:39:29.724Z,73.80
2019-05-23T20:42:10.428Z,74.10
2019-05-23T20:44:25.524Z,74.20
2019-05-23T20:46:52.593Z,74.30
2019-05-23T20:49:19.548Z,75.30
2019-05-23T20:52:06.250Z,74.60
2019-05-23T20:54:33.870Z,75.10
2019-05-23T20:57:01.765Z,74.50
2019-05-23T20:59:29.399Z,74.60
2019-05-23T21:01:56.457Z,76.30
2019-05-23T21:04:23.476Z,75.70
2019-05-23T21:06:51.506Z,76.00
2019-05-23T21:09:19.369Z,76.30
2019-05-23T21:11:46.465Z,75.40
2019-05-23T21:14:13.544Z,75.70
2019-05-23T21:16:40.552Z,76.00
2019-05-23T21:19:07.445Z,75.40
2019-05-23T21:21:35.742Z,75.20
2019-05-23T21:24:02.917Z,75.20
2019-05-23T21:26:30.059Z,75.30
2019-05-23T21:29:16.691Z,75.50
2019-05-23T21:31:45.894Z,75.30
2019-05-23T21:34:13.536Z,75.80
2019-05-23T21:36:40.427Z,76.20
2019-05-23T21:39:09.108Z,75.80
2019-05-23T21:41:36.588Z,76.00
2019-05-23T21:44:04.024Z,76.10
2019-05-23T21:46:31.041Z,76.20
2019-05-23T21:48:58.034Z,76.10
2019-05-23T21:51:25.439Z,76.90
2019-05-23T21:53:52.935Z,76.50
2019-05-23T21:56:19.830Z,76.60
2019-05-23T21:59:06.407Z,76.60
2019-05-23T22:01:42.045Z,77.00
2019-05-23T22:04:40.919Z,77.20
2019-05-23T22:07:08.833Z,76.90
2019-05-23T22:09:37.195Z,77.30
2019-05-23T22:12:08.647Z,77.00
2019-05-23T22:14:36.169Z,77.10
2019-05-23T22:17:03.389Z,77.20
2019-05-23T22:19:32.352Z,77.20
2019-05-23T22:21:59.787Z,76.90
2019-05-23T22:24:26.816Z,77.20
2019-05-23T22:26:53.756Z,77.30
2019-05-23T22:29:20.912Z,77.30
2019-05-23T22:31:47.802Z,77.10
2019-05-23T22:34:25.883Z,78.40
2019-05-23T22:36:53.431Z,78.20
2019-05-23T22:39:20.430Z,77.90
2019-05-23T22:41:47.461Z,78.30
2019-05-23T22:44:14.450Z,77.70
2019-05-23T22:46:42.044Z,78.00
2019-05-23T22:49:09.518Z,78.20
2019-05-23T22:51:36.608Z,78.20
2019-05-23T22:54:03.917Z,78.50
2019-05-23T22:56:30.870Z,78.50
2019-05-23T22:58:58.575Z,78.30
2019-05-23T23:01:27.708Z,79.40
2019-05-23T23:03:55.872Z,79.00
2019-05-23T23:06:23.267Z,79.00
2019-05-23T23:08:50.151Z,78.60
2019-05-23T23:11:17.163Z,78.60
2019-05-23T23:13:44.602Z,79.90
2019-05-23T23:16:12.457Z,79.10
2019-05-23T23:18:39.572Z,79.30
2019-05-23T23:21:06.591Z,79.10
2019-05-23T23:23:34.023Z,79.70
2019-05-23T23:26:01.469Z,80.30
2019-05-23T23:28:28.454Z,80.50
2019-05-23T23:30:55.881Z,79.60
2019-05-23T23:33:22.759Z,80.70
2019-05-23T23:36:09.284Z,79.60
2019-05-23T23:38:36.210Z,79.80
2019-05-23T23:41:03.498Z,78.90
2019-05-23T23:43:31.139Z,79.60
2019-05-23T23:46:16.484Z,79.60
2019-05-23T23:49:01.535Z,79.50
2019-05-23T23:51:48.419Z,79.50
2019-05-23T23:54:53.366Z,79.40
2019-05-23T23:57:39.703Z,80.20
